createdAt,value
2023-04-18T00:04:38.044Z,7.7
2023-04-18T00:09:44.136Z,7.7
2023-04-18T00:14:50.232Z,7.7
2023-04-18T00:19:56.334Z,7.7
2023-04-18T00:25:02.412Z,7.7
2023-04-18T00:30:08.517Z,7.7
2023-04-18T00:35:14.634Z,7.7
2023-04-18T00:40:20.715Z,7.7
2023-04-18T00:45:26.806Z,7.7
2023-04-18T00:50:32.902Z,7.7
2023-04-18T00:55:38.028Z,7.8
2023-04-18T01:00:44.122Z,7.8
2023-04-18T01:05:50.210Z,7.7
2023-04-18T01:10:56.322Z,7.8
2023-04-18T01:16:02.416Z,7.8
2023-04-18T01:21:08.507Z,7.8
2023-04-18T01:26:14.617Z,7.8
2023-04-18T01:31:20.713Z,7.8
2023-04-18T01:36:26.816Z,7.8
2023-04-18T01:41:32.915Z,7.8
2023-04-18T01:46:39.003Z,7.8
2023-04-18T01:51:45.091Z,7.9
2023-04-18T01:56:51.185Z,7.9
2023-04-18T02:01:56.307Z,7.9
2023-04-18T02:07:02.413Z,8
2023-04-18T02:12:08.514Z,8
2023-04-18T02:17:14.617Z,8
2023-04-18T02:22:20.707Z,8
2023-04-18T02:27:26.788Z,8
2023-04-18T02:32:32.897Z,8.1
2023-04-18T02:37:38.984Z,8.1
2023-04-18T02:42:45.099Z,8.1
2023-04-18T02:47:51.182Z,8.2
2023-04-18T02:52:57.287Z,8.2
2023-04-18T02:58:03.378Z,8.2
2023-04-18T03:03:09.465Z,8.2
2023-04-18T03:08:14.620Z,8.2
2023-04-18T03:13:20.690Z,8.2
2023-04-18T03:18:26.780Z,8.2
2023-04-18T03:23:32.865Z,8.2
2023-04-18T03:28:38.963Z,8.2
2023-04-18T03:33:45.054Z,8.1
2023-04-18T03:38:51.162Z,8.1
2023-04-18T03:43:57.274Z,8.1
2023-04-18T03:49:03.350Z,8.1
2023-04-18T03:54:09.456Z,8.1
2023-04-18T03:59:15.561Z,8.1
2023-04-18T04:04:21.652Z,8.1
2023-04-18T04:09:27.748Z,8.1
2023-04-18T04:14:32.869Z,8.1
2023-04-18T04:19:38.989Z,8.1
2023-04-18T04:24:45.060Z,8
2023-04-18T04:29:51.148Z,8
2023-04-18T04:34:57.238Z,8.1
2023-04-18T04:40:03.339Z,8.1
2023-04-18T04:45:09.435Z,8
2023-04-18T04:50:15.530Z,8
2023-04-18T04:55:21.629Z,8.1
2023-04-18T05:00:27.728Z,8
2023-04-18T05:05:33.838Z,8
2023-04-18T05:10:39.921Z,8
2023-04-18T05:15:46.016Z,8
2023-04-18T05:20:51.129Z,8
2023-04-18T05:25:57.229Z,8.1
2023-04-18T05:31:03.322Z,8.1
2023-04-18T05:36:09.413Z,8.1
2023-04-18T05:41:15.527Z,8.2
2023-04-18T05:46:21.644Z,8.4
2023-04-18T05:51:27.716Z,8.4
2023-04-18T05:56:33.806Z,8.5
2023-04-18T06:01:39.912Z,8.5
2023-04-18T06:06:46.052Z,8.8
2023-04-18T06:11:52.243Z,8.9
2023-04-18T06:16:58.201Z,8.9
2023-04-18T06:22:04.317Z,8.5
2023-04-18T06:27:09.469Z,8.6
2023-04-18T06:32:15.552Z,8.6
2023-04-18T06:37:21.606Z,8.8
2023-04-18T06:42:27.693Z,9
2023-04-18T06:47:33.786Z,9.1
2023-04-18T06:52:39.974Z,9.3
2023-04-18T06:57:46.000Z,9.3
2023-04-18T07:02:52.083Z,9.3
2023-04-18T07:07:58.173Z,9.3
2023-04-18T07:13:04.293Z,9.4
2023-04-18T07:18:10.407Z,9.5
2023-04-18T07:23:16.529Z,9.6
2023-04-18T07:28:22.581Z,9.6
2023-04-18T07:33:27.773Z,9.9
2023-04-18T07:38:33.769Z,10.2
2023-04-18T07:43:39.893Z,10.5
2023-04-18T07:48:46.103Z,10.7
2023-04-18T07:53:52.063Z,10.7
2023-04-18T07:58:58.259Z,10.9
2023-04-18T08:04:04.446Z,11.1
2023-04-18T08:09:10.454Z,11.2
2023-04-18T08:14:16.678Z,11.1
2023-04-18T08:19:22.558Z,11.3
2023-04-18T08:24:28.636Z,11.6
2023-04-18T08:29:34.753Z,11.7
2023-04-18T08:34:40.839Z,12
2023-04-18T08:39:45.957Z,11.8
2023-04-18T08:44:52.055Z,12.1
2023-04-18T08:49:58.146Z,12.3
2023-04-18T08:55:04.250Z,12.7
2023-04-18T09:00:10.494Z,12.7
2023-04-18T09:05:16.418Z,13
2023-04-18T09:10:22.528Z,12.7
2023-04-18T09:15:28.629Z,12.6
2023-04-18T09:20:34.718Z,12.9
2023-04-18T09:25:40.821Z,13.3
2023-04-18T09:30:46.978Z,13.6
2023-04-18T09:35:53.003Z,13.4
2023-04-18T09:40:59.114Z,13.5
2023-04-18T09:46:04.209Z,13.3
2023-04-18T09:51:10.301Z,13.3
2023-04-18T09:56:16.396Z,13.9
2023-04-18T10:01:22.511Z,14.7
2023-04-18T10:06:28.640Z,14.5
2023-04-18T10:11:34.696Z,14.6
2023-04-18T10:16:40.992Z,14.4
2023-04-18T10:21:46.882Z,14
2023-04-18T10:26:53.010Z,14.5
2023-04-18T10:31:59.102Z,14.2
2023-04-18T10:37:05.182Z,13.5
2023-04-18T10:42:11.324Z,13.7
2023-04-18T10:47:17.371Z,14.4
2023-04-18T10:52:22.498Z,14.3
2023-04-18T10:57:28.601Z,13.7
2023-04-18T11:02:34.705Z,14
2023-04-18T11:07:40.776Z,13.8
2023-04-18T11:12:46.952Z,13.3
2023-04-18T11:17:53.012Z,13.3
2023-04-18T11:22:59.060Z,13.9
2023-04-18T11:28:05.200Z,14.6
2023-04-18T11:33:11.266Z,14.6
2023-04-18T11:38:17.353Z,14.6
2023-04-18T11:43:23.449Z,14.3
2023-04-18T11:48:29.536Z,13.7
2023-04-18T11:53:35.661Z,13.3
2023-04-18T11:58:40.760Z,13.5
2023-04-18T12:03:46.846Z,14.1
2023-04-18T12:08:52.948Z,14.7
2023-04-18T12:13:59.054Z,15.4
2023-04-18T12:19:05.167Z,15.2
2023-04-18T12:24:11.243Z,14.9
2023-04-18T12:29:17.362Z,14.2
2023-04-18T12:34:23.431Z,13.9
2023-04-18T12:39:29.535Z,13.8
2023-04-18T12:44:35.609Z,13.8
2023-04-18T12:49:41.725Z,13.4
2023-04-18T12:54:47.797Z,13.3
2023-04-18T12:59:53.915Z,13.4
2023-04-18T13:04:59.008Z,13.6
2023-04-18T13:10:05.126Z,13.8
2023-04-18T13:15:11.221Z,13.6
2023-04-18T13:20:17.310Z,13.4
2023-04-18T13:25:23.404Z,13.4
2023-04-18T13:30:29.494Z,13.1
2023-04-18T13:35:35.593Z,13
2023-04-18T13:40:41.700Z,12.9
2023-04-18T13:45:47.784Z,12.8
2023-04-18T13:50:54.121Z,12.6
2023-04-18T13:55:59.989Z,12.5
2023-04-18T14:01:06.077Z,12.4
2023-04-18T14:06:12.164Z,12.4
2023-04-18T14:11:17.276Z,12.3
2023-04-18T14:16:23.387Z,12.1
2023-04-18T14:21:29.483Z,12
2023-04-18T14:26:35.569Z,12
2023-04-18T14:31:41.738Z,12
2023-04-18T14:36:47.904Z,11.9
2023-04-18T14:41:53.886Z,11.9
2023-04-18T14:46:59.977Z,11.9
2023-04-18T14:52:06.076Z,11.8
2023-04-18T14:57:12.166Z,11.8
2023-04-18T15:02:18.254Z,11.7
2023-04-18T15:07:24.418Z,11.6
2023-04-18T15:12:30.457Z,11.5
2023-04-18T15:17:35.619Z,11.4
2023-04-18T15:22:41.670Z,11.3
2023-04-18T15:27:47.741Z,11.2
2023-04-18T15:32:53.859Z,11.2
2023-04-18T15:37:59.965Z,11.1
2023-04-18T15:43:06.216Z,11
2023-04-18T15:48:11.172Z,11.1
2023-04-18T15:53:17.270Z,11.1
2023-04-18T15:58:23.370Z,11.2
2023-04-18T16:03:29.461Z,11.2
2023-04-18T16:08:35.598Z,11.3
2023-04-18T16:13:41.673Z,11.2
2023-04-18T16:18:47.814Z,11.1
2023-04-18T16:23:53.821Z,11.1
2023-04-18T16:28:59.938Z,11.1
2023-04-18T16:34:06.038Z,11.1
2023-04-18T16:39:12.176Z,11.1
2023-04-18T16:44:18.228Z,11.1
2023-04-18T16:49:24.332Z,11
2023-04-18T16:54:29.448Z,11.1
2023-04-18T16:59:35.538Z,11
2023-04-18T17:04:41.639Z,11.1
2023-04-18T17:09:47.776Z,11.1
2023-04-18T17:14:53.838Z,11.1
2023-04-18T17:19:59.925Z,11.1
2023-04-18T17:25:06.016Z,11.1
2023-04-18T17:30:12.112Z,11.1
2023-04-18T17:35:18.209Z,11.1
2023-04-18T17:40:24.314Z,11
2023-04-18T17:45:30.411Z,11
2023-04-18T17:50:36.493Z,11.1
2023-04-18T17:55:42.605Z,11
2023-04-18T18:00:47.711Z,11
2023-04-18T18:05:53.813Z,11
2023-04-18T18:10:59.899Z,10.9
2023-04-18T18:16:06.058Z,10.8
2023-04-18T18:21:12.110Z,10.8
2023-04-18T18:26:18.201Z,10.7
2023-04-18T18:31:24.283Z,10.7
2023-04-18T18:36:30.404Z,10.7
2023-04-18T18:41:36.464Z,10.7
2023-04-18T18:46:42.576Z,10.7
2023-04-18T18:51:48.735Z,10.8
2023-04-18T18:56:54.762Z,10.8
2023-04-18T19:02:00.868Z,10.8
2023-04-18T19:07:06.026Z,10.8
2023-04-18T19:12:12.153Z,10.8
2023-04-18T19:17:18.265Z,10.9
2023-04-18T19:27:30.362Z,10.9
2023-04-18T19:32:36.512Z,10.9
2023-04-18T19:37:42.577Z,10.9
2023-04-18T19:42:48.784Z,11
2023-04-18T19:47:54.865Z,11
2023-04-18T19:53:00.912Z,11
2023-04-18T19:58:06.976Z,11
2023-04-18T20:03:13.139Z,11
2023-04-18T20:08:19.144Z,11.1
2023-04-18T20:13:24.252Z,11.1
2023-04-18T20:18:30.377Z,11.1
2023-04-18T20:23:36.466Z,11.1
2023-04-18T20:28:42.617Z,11.1
2023-04-18T20:33:48.762Z,11.1
2023-04-18T20:38:54.754Z,11.2
2023-04-18T20:44:00.860Z,11.2
2023-04-18T20:49:06.958Z,11.2
2023-04-18T20:54:13.026Z,11.2
2023-04-18T20:59:19.111Z,11.3
2023-04-18T21:04:25.209Z,11.2
2023-04-18T21:09:31.326Z,11.2
2023-04-18T21:14:37.410Z,11.1
2023-04-18T21:19:42.549Z,11.1
2023-04-18T21:24:48.632Z,11.2
2023-04-18T21:29:54.732Z,11.2
2023-04-18T21:35:00.826Z,11.1
2023-04-18T21:40:06.911Z,11.1
2023-04-18T21:45:13.034Z,11
2023-04-18T21:50:19.101Z,10.9
2023-04-18T21:55:25.264Z,10.8
2023-04-18T22:00:31.315Z,10.7
2023-04-18T22:05:37.462Z,10.6
2023-04-18T22:10:43.490Z,10.5
2023-04-18T22:15:49.591Z,10.5
2023-04-18T22:20:55.691Z,10.4
2023-04-18T22:26:00.797Z,10.4
2023-04-18T22:31:06.933Z,10.3
2023-04-18T22:36:13.001Z,10.2
2023-04-18T22:41:19.103Z,10.1
2023-04-18T22:46:25.237Z,10.1
2023-04-18T22:51:31.282Z,10.1
2023-04-18T22:56:37.392Z,10.1
2023-04-18T23:01:43.491Z,10.1
2023-04-18T23:06:49.576Z,10
2023-04-18T23:11:55.680Z,10
2023-04-18T23:17:01.822Z,10
2023-04-18T23:22:07.862Z,9.9
2023-04-18T23:27:14.044Z,9.9
2023-04-18T23:32:19.099Z,9.8
2023-04-18T23:37:25.191Z,9.7
2023-04-18T23:42:31.339Z,9.6
2023-04-18T23:47:37.368Z,9.4
2023-04-18T23:52:43.462Z,9.1
2023-04-18T23:57:49.570Z,9.1
